createdAt,value
2018-12-10T00:00:45.495Z,6.30
2018-12-10T00:03:18.494Z,6.30
2018-12-10T00:05:45.948Z,6.40
2018-12-10T00:08:13.386Z,6.30
2018-12-10T00:10:41.717Z,6.40
2018-12-10T00:13:09.399Z,6.30
2018-12-10T00:15:36.859Z,6.30
2018-12-10T00:18:04.296Z,6.30
2018-12-10T00:20:31.745Z,6.20
2018-12-10T00:22:59.174Z,6.20
2018-12-10T00:25:26.637Z,6.20
2018-12-10T00:27:54.070Z,6.10
2018-12-10T00:30:21.515Z,6.10
2018-12-10T00:32:48.963Z,6.10
2018-12-10T00:35:16.410Z,6.00
2018-12-10T00:37:43.867Z,6.00
2018-12-10T00:40:11.305Z,5.90
2018-12-10T00:42:38.746Z,5.90
2018-12-10T00:45:06.311Z,5.90
2018-12-10T00:47:33.754Z,5.90
2018-12-10T00:50:01.200Z,6.00
2018-12-10T00:52:28.648Z,6.00
2018-12-10T00:54:56.082Z,6.00
2018-12-10T00:57:23.530Z,6.00
2018-12-10T00:59:51.667Z,6.00
2018-12-10T01:02:19.115Z,6.00
2018-12-10T01:04:46.563Z,6.10
2018-12-10T01:07:14.014Z,6.10
2018-12-10T01:09:41.459Z,6.10
2018-12-10T01:12:09.007Z,6.10
2018-12-10T01:14:36.962Z,6.00
2018-12-10T01:17:04.426Z,6.00
2018-12-10T01:19:31.859Z,6.00
2018-12-10T01:21:59.299Z,6.00
2018-12-10T01:24:26.742Z,5.90
2018-12-10T01:26:54.173Z,5.80
2018-12-10T01:29:21.630Z,5.70
2018-12-10T01:31:49.062Z,5.70
2018-12-10T01:34:17.379Z,5.70
2018-12-10T01:36:44.852Z,5.60
2018-12-10T01:39:12.299Z,5.60
2018-12-10T01:41:39.744Z,5.60
2018-12-10T01:44:07.192Z,5.70
2018-12-10T01:46:35.003Z,5.60
2018-12-10T01:49:02.460Z,5.60
2018-12-10T01:51:29.890Z,5.60
2018-12-10T01:53:57.357Z,5.60
2018-12-10T01:56:24.794Z,5.70
2018-12-10T01:58:52.283Z,5.60
2018-12-10T02:01:19.722Z,5.60
2018-12-10T02:03:47.170Z,5.60
2018-12-10T02:06:14.834Z,5.70
2018-12-10T02:08:42.290Z,5.70
2018-12-10T02:11:09.814Z,5.70
2018-12-10T02:13:37.250Z,5.60
2018-12-10T02:16:04.759Z,5.70
2018-12-10T02:18:32.194Z,5.70
2018-12-10T02:20:59.651Z,5.70
2018-12-10T02:23:27.084Z,5.70
2018-12-10T02:25:54.534Z,5.80
2018-12-10T02:28:27.551Z,5.70
2018-12-10T02:30:55.009Z,5.70
2018-12-10T02:33:22.438Z,5.70
2018-12-10T02:35:49.895Z,5.60
2018-12-10T02:38:17.329Z,5.60
2018-12-10T02:40:44.903Z,5.50
2018-12-10T02:43:12.424Z,5.50
2018-12-10T02:45:39.882Z,5.50
2018-12-10T02:48:07.315Z,5.50
2018-12-10T02:50:34.773Z,5.50
2018-12-10T02:53:02.211Z,5.50
2018-12-10T02:55:29.659Z,5.50
2018-12-10T02:57:57.090Z,5.50
2018-12-10T03:00:24.536Z,5.50
2018-12-10T03:02:51.974Z,5.60
2018-12-10T03:05:19.467Z,5.60
2018-12-10T03:07:47.454Z,5.60
2018-12-10T03:10:14.903Z,5.60
2018-12-10T03:12:42.356Z,5.50
2018-12-10T03:15:09.804Z,5.50
2018-12-10T03:17:37.927Z,5.40
2018-12-10T03:20:05.365Z,5.50
2018-12-10T03:22:32.808Z,5.50
2018-12-10T03:25:00.262Z,5.50
2018-12-10T03:27:27.700Z,5.50
2018-12-10T03:29:55.786Z,5.50
2018-12-10T03:32:33.954Z,5.40
2018-12-10T03:35:08.012Z,5.40
2018-12-10T03:37:39.072Z,5.30
2018-12-10T03:40:06.710Z,5.30
2018-12-10T03:42:34.141Z,5.20
2018-12-10T03:45:01.567Z,5.20
2018-12-10T03:47:32.123Z,5.20
2018-12-10T03:49:59.671Z,5.20
2018-12-10T03:52:27.129Z,5.20
2018-12-10T03:54:54.564Z,5.10
2018-12-10T03:57:22.602Z,5.10
2018-12-10T03:59:50.042Z,5.10
2018-12-10T04:02:18.040Z,5.20
2018-12-10T04:04:45.462Z,5.10
2018-12-10T04:07:12.935Z,5.10
2018-12-10T04:09:40.371Z,5.10
2018-12-10T04:12:07.815Z,5.10
2018-12-10T04:14:35.262Z,5.20
2018-12-10T04:17:02.795Z,5.20
2018-12-10T04:19:30.224Z,5.30
2018-12-10T04:21:57.667Z,5.30
2018-12-10T04:24:25.119Z,5.30
2018-12-10T04:26:52.655Z,5.30
2018-12-10T04:29:20.317Z,5.30
2018-12-10T04:31:47.863Z,5.30
2018-12-10T04:34:15.922Z,5.30
2018-12-10T04:36:43.385Z,5.20
2018-12-10T04:39:10.820Z,5.20
2018-12-10T04:41:38.271Z,5.20
2018-12-10T04:44:05.702Z,5.20
2018-12-10T04:46:33.150Z,5.20
2018-12-10T04:49:01.207Z,5.20
2018-12-10T04:51:28.886Z,5.10
2018-12-10T04:53:56.326Z,5.10
2018-12-10T04:56:23.761Z,5.10
2018-12-10T04:58:51.203Z,5.10
2018-12-10T05:01:18.634Z,5.00
2018-12-10T05:03:46.822Z,5.00
2018-12-10T05:06:14.262Z,5.10
2018-12-10T05:08:41.748Z,5.10
2018-12-10T05:11:09.187Z,5.10
2018-12-10T05:13:36.626Z,5.10
2018-12-10T05:16:04.075Z,5.10
2018-12-10T05:18:31.545Z,5.10
2018-12-10T05:20:58.979Z,5.10
2018-12-10T05:23:26.407Z,5.00
2018-12-10T05:25:53.845Z,5.00
2018-12-10T05:28:21.291Z,5.00
2018-12-10T05:30:48.729Z,5.00
2018-12-10T05:33:16.179Z,4.90
2018-12-10T05:35:43.730Z,5.00
2018-12-10T05:38:11.274Z,5.00
2018-12-10T05:40:38.709Z,5.00
2018-12-10T05:43:06.161Z,5.00
2018-12-10T05:45:34.034Z,4.90
2018-12-10T05:48:01.500Z,4.90
2018-12-10T05:50:28.937Z,4.90
2018-12-10T05:52:57.062Z,4.80
2018-12-10T05:55:24.499Z,4.70
2018-12-10T05:57:52.790Z,4.70
2018-12-10T06:00:20.226Z,4.80
2018-12-10T06:02:48.003Z,4.90
2018-12-10T06:05:15.434Z,5.00
2018-12-10T06:07:43.363Z,5.10
2018-12-10T06:10:11.135Z,5.10
2018-12-10T06:12:38.896Z,5.10
2018-12-10T06:15:06.770Z,5.10
2018-12-10T06:17:35.735Z,5.00
2018-12-10T06:20:04.861Z,5.00
2018-12-10T06:22:32.401Z,4.90
2018-12-10T06:25:00.489Z,4.90
2018-12-10T06:27:27.951Z,4.90
2018-12-10T06:29:55.411Z,4.90
2018-12-10T06:32:22.938Z,4.90
2018-12-10T06:34:50.391Z,4.90
2018-12-10T06:37:17.825Z,4.90
2018-12-10T06:39:45.283Z,4.90
2018-12-10T06:42:12.719Z,4.90
2018-12-10T06:44:40.181Z,4.90
2018-12-10T06:47:07.661Z,4.90
2018-12-10T06:49:35.116Z,4.90
2018-12-10T06:52:02.558Z,4.90
2018-12-10T06:54:30.019Z,4.90
2018-12-10T06:56:57.468Z,4.90
2018-12-10T06:59:25.634Z,4.90
2018-12-10T07:01:53.705Z,4.80
2018-12-10T07:04:21.434Z,4.80
2018-12-10T07:06:48.851Z,4.80
2018-12-10T07:09:17.113Z,4.70
2018-12-10T07:11:44.556Z,4.70
2018-12-10T07:14:12.045Z,4.70
2018-12-10T07:16:39.480Z,4.80
2018-12-10T07:19:06.940Z,4.80
2018-12-10T07:21:34.379Z,4.80
2018-12-10T07:24:01.823Z,4.80
2018-12-10T07:26:29.258Z,5.10
2018-12-10T07:28:56.739Z,5.50
2018-12-10T07:31:24.226Z,5.30
2018-12-10T07:33:51.747Z,5.20
2018-12-10T07:36:19.190Z,5.00
2018-12-10T07:38:46.658Z,4.90
2018-12-10T07:41:14.098Z,5.00
2018-12-10T07:43:41.536Z,4.90
2018-12-10T07:46:08.992Z,4.90
2018-12-10T07:48:36.422Z,4.90
2018-12-10T07:51:03.875Z,4.90
2018-12-10T07:53:31.310Z,4.80
2018-12-10T07:55:58.754Z,4.80
2018-12-10T07:58:26.199Z,4.80
2018-12-10T08:00:53.648Z,4.80
2018-12-10T08:03:21.106Z,4.80
2018-12-10T08:05:48.567Z,4.80
2018-12-10T08:08:16.002Z,4.90
2018-12-10T08:10:43.469Z,4.90
2018-12-10T08:13:10.910Z,5.00
2018-12-10T08:15:38.847Z,5.00
2018-12-10T08:18:06.285Z,5.00
2018-12-10T08:20:33.781Z,5.00
2018-12-10T08:23:01.271Z,5.00
2018-12-10T08:25:28.830Z,5.00
2018-12-10T08:27:56.367Z,4.90
2018-12-10T08:30:23.811Z,4.80
2018-12-10T08:32:51.245Z,4.80
2018-12-10T08:35:18.694Z,4.90
2018-12-10T08:37:46.135Z,4.90
2018-12-10T08:40:14.796Z,4.90
2018-12-10T08:42:42.240Z,5.00
2018-12-10T08:45:09.740Z,5.00
2018-12-10T08:47:37.195Z,5.00
2018-12-10T08:50:05.256Z,5.10
2018-12-10T08:52:32.768Z,5.00
2018-12-10T08:55:00.259Z,5.00
2018-12-10T08:57:27.705Z,5.00
2018-12-10T08:59:55.159Z,4.90
2018-12-10T09:02:22.594Z,4.90
2018-12-10T09:04:50.026Z,4.80
2018-12-10T09:07:17.480Z,4.80
2018-12-10T09:09:45.600Z,4.80
2018-12-10T09:12:13.046Z,4.80
2018-12-10T09:14:40.483Z,4.90
2018-12-10T09:17:07.934Z,4.90
2018-12-10T09:19:35.379Z,4.90
2018-12-10T09:22:02.847Z,5.00
2018-12-10T09:24:30.290Z,5.00
2018-12-10T09:26:57.747Z,5.00
2018-12-10T09:29:25.228Z,5.20
2018-12-10T09:31:53.009Z,5.30
2018-12-10T09:34:20.447Z,5.40
2018-12-10T09:36:48.614Z,5.60
2018-12-10T09:39:16.055Z,5.70
2018-12-10T09:41:43.570Z,6.00
2018-12-10T09:44:11.067Z,6.00
2018-12-10T09:46:38.527Z,6.00
2018-12-10T09:49:05.973Z,6.00
2018-12-10T09:51:33.522Z,5.90
2018-12-10T09:54:00.962Z,5.90
2018-12-10T09:56:28.431Z,5.90
2018-12-10T09:58:55.874Z,5.90
2018-12-10T10:01:23.316Z,5.90
2018-12-10T10:03:51.447Z,5.80
2018-12-10T10:06:18.886Z,5.80
2018-12-10T10:08:46.347Z,5.90
2018-12-10T10:11:13.788Z,5.90
2018-12-10T10:13:42.158Z,5.90
2018-12-10T10:16:09.595Z,5.90
2018-12-10T10:18:37.057Z,5.80
2018-12-10T10:21:04.485Z,5.90
2018-12-10T10:23:31.939Z,5.90
2018-12-10T10:25:59.375Z,5.90
2018-12-10T10:28:26.831Z,6.60
2018-12-10T10:30:54.565Z,6.30
2018-12-10T10:33:22.116Z,6.40
2018-12-10T10:35:49.559Z,6.80
2018-12-10T10:38:17.001Z,6.90
2018-12-10T10:40:44.448Z,6.50
2018-12-10T10:43:11.903Z,6.30
2018-12-10T10:45:39.343Z,6.20
2018-12-10T10:48:06.794Z,6.20
2018-12-10T10:50:34.239Z,6.20
2018-12-10T10:53:01.697Z,6.10
2018-12-10T10:55:30.427Z,5.90
2018-12-10T10:57:57.960Z,5.80
2018-12-10T11:00:31.147Z,5.70
2018-12-10T11:05:49.670Z,5.30
2018-12-10T11:08:17.193Z,5.20
2018-12-10T11:10:44.662Z,5.10
2018-12-10T11:13:12.110Z,5.00
2018-12-10T11:15:39.941Z,5.00
2018-12-10T11:18:07.450Z,5.10
2018-12-10T11:20:34.903Z,5.10
2018-12-10T11:23:02.399Z,5.30
2018-12-10T11:25:29.844Z,5.40
2018-12-10T11:27:57.276Z,5.50
2018-12-10T11:30:24.727Z,5.50
2018-12-10T11:32:53.133Z,5.60
2018-12-10T11:35:21.123Z,5.70
2018-12-10T11:37:48.563Z,5.70
2018-12-10T11:40:16.024Z,5.70
2018-12-10T11:42:44.657Z,5.70
2018-12-10T11:45:12.102Z,5.70
2018-12-10T11:47:39.541Z,5.70
2018-12-10T11:50:07.168Z,5.70
2018-12-10T11:52:34.665Z,5.70
2018-12-10T11:55:02.117Z,5.80
2018-12-10T11:57:29.836Z,5.70
2018-12-10T11:59:57.274Z,5.80
2018-12-10T12:02:29.728Z,5.80
2018-12-10T12:04:54.611Z,5.70
2018-12-10T12:07:22.035Z,5.60
2018-12-10T12:09:49.501Z,5.60
2018-12-10T12:12:16.943Z,5.60
2018-12-10T12:14:44.377Z,5.60
2018-12-10T12:17:12.855Z,5.60
2018-12-10T12:19:40.300Z,5.50
2018-12-10T12:22:07.809Z,5.40
2018-12-10T12:24:35.687Z,5.40
2018-12-10T12:27:03.179Z,5.30
2018-12-10T12:29:30.616Z,5.40
2018-12-10T12:31:58.072Z,5.40
2018-12-10T12:34:25.599Z,5.40
2018-12-10T12:36:53.031Z,5.40
2018-12-10T12:39:20.462Z,5.40
2018-12-10T12:41:48.160Z,5.50
2018-12-10T12:44:15.928Z,5.50
2018-12-10T12:46:43.441Z,5.50
2018-12-10T12:49:10.915Z,5.50
2018-12-10T12:51:38.365Z,5.60
2018-12-10T12:54:05.820Z,5.50
2018-12-10T12:56:33.242Z,5.60
2018-12-10T12:59:00.703Z,5.50
2018-12-10T13:01:28.198Z,5.50
2018-12-10T13:03:55.659Z,5.50
2018-12-10T13:06:23.220Z,5.50
2018-12-10T13:08:50.887Z,5.50
2018-12-10T13:11:18.335Z,5.50
2018-12-10T13:13:46.595Z,5.60
2018-12-10T13:16:14.035Z,5.60
2018-12-10T13:18:41.500Z,5.60
2018-12-10T13:21:09.359Z,5.60
2018-12-10T13:23:36.815Z,5.60
2018-12-10T13:26:04.250Z,5.60
2018-12-10T13:28:31.693Z,5.60
2018-12-10T13:30:59.147Z,5.60
2018-12-10T13:33:26.862Z,5.70
2018-12-10T13:35:54.299Z,5.70
2018-12-10T13:38:22.012Z,5.70
2018-12-10T13:40:49.462Z,5.70
2018-12-10T13:43:16.904Z,5.70
2018-12-10T13:45:44.358Z,5.70
2018-12-10T13:48:12.714Z,5.80
2018-12-10T13:50:40.170Z,5.80
2018-12-10T13:53:07.602Z,5.80
2018-12-10T13:55:35.050Z,5.80
2018-12-10T13:58:02.714Z,5.90
2018-12-10T14:00:30.295Z,5.90
2018-12-10T14:02:59.695Z,6.00
2018-12-10T14:05:27.131Z,6.00
2018-12-10T14:07:54.583Z,6.00
2018-12-10T14:10:22.027Z,6.00
2018-12-10T14:12:49.484Z,6.00
2018-12-10T14:15:17.299Z,6.00
2018-12-10T14:17:44.755Z,6.00
2018-12-10T14:20:12.197Z,5.90
2018-12-10T14:22:39.717Z,5.90
2018-12-10T14:25:09.182Z,5.90
2018-12-10T14:27:36.626Z,5.90
2018-12-10T14:30:05.542Z,5.80
2018-12-10T14:32:32.992Z,5.80
2018-12-10T14:35:00.467Z,5.80
2018-12-10T14:37:27.948Z,5.80
2018-12-10T14:39:55.443Z,5.70
2018-12-10T14:42:23.038Z,5.70
2018-12-10T14:44:50.474Z,5.70
2018-12-10T14:47:17.935Z,5.70
2018-12-10T14:49:45.374Z,5.70
2018-12-10T14:52:12.839Z,5.70
2018-12-10T14:54:40.278Z,5.60
2018-12-10T14:57:07.737Z,5.60
2018-12-10T14:59:35.177Z,5.60
2018-12-10T15:02:02.752Z,5.60
2018-12-10T15:04:30.193Z,5.50
2018-12-10T15:06:57.652Z,5.50
2018-12-10T15:09:25.095Z,5.50
2018-12-10T15:11:52.543Z,5.50
2018-12-10T15:14:19.978Z,5.50
2018-12-10T15:16:47.410Z,5.40
2018-12-10T15:19:14.868Z,5.40
2018-12-10T15:21:42.311Z,5.40
2018-12-10T15:24:09.761Z,5.40
2018-12-10T15:26:37.211Z,5.40
2018-12-10T15:29:04.671Z,5.30
2018-12-10T15:31:32.162Z,5.30
2018-12-10T15:33:59.678Z,5.30
2018-12-10T15:36:27.526Z,5.30
2018-12-10T15:38:54.983Z,5.30
2018-12-10T15:41:22.419Z,5.30
2018-12-10T15:43:49.867Z,5.30
2018-12-10T15:46:17.306Z,5.40
2018-12-10T15:48:44.755Z,5.40
2018-12-10T15:51:12.286Z,5.40
2018-12-10T15:53:39.743Z,5.40
2018-12-10T15:56:07.186Z,5.50
2018-12-10T15:58:34.648Z,5.60
2018-12-10T16:01:02.079Z,5.60
2018-12-10T16:03:29.515Z,5.60
2018-12-10T16:05:56.963Z,5.50
2018-12-10T16:08:24.386Z,5.40
2018-12-10T16:10:51.875Z,5.40
2018-12-10T16:13:19.315Z,5.40
2018-12-10T16:15:46.765Z,5.30
2018-12-10T16:18:14.239Z,5.20
2018-12-10T16:20:41.695Z,5.20
2018-12-10T16:23:09.128Z,5.10
2018-12-10T16:25:36.582Z,5.00
2018-12-10T16:28:04.010Z,4.90
2018-12-10T16:30:31.829Z,4.90
2018-12-10T16:32:59.328Z,5.00
2018-12-10T16:35:28.021Z,5.00
2018-12-10T16:37:55.526Z,4.90
2018-12-10T16:40:22.997Z,4.90
2018-12-10T16:42:50.447Z,4.80
2018-12-10T16:45:17.949Z,4.80
2018-12-10T16:47:45.491Z,4.70
2018-12-10T16:50:13.479Z,4.70
2018-12-10T16:52:40.918Z,4.70
2018-12-10T16:55:08.434Z,4.80
2018-12-10T16:57:36.506Z,4.70
2018-12-10T17:00:07.866Z,4.80
2018-12-10T17:02:36.835Z,4.80
2018-12-10T17:05:06.307Z,4.80
2018-12-10T17:07:33.756Z,4.90
2018-12-10T17:10:01.563Z,4.90
2018-12-10T17:12:33.775Z,4.90
2018-12-10T17:15:01.216Z,5.00
2018-12-10T17:17:33.116Z,5.10
2018-12-10T17:20:00.853Z,5.00
2018-12-10T17:22:28.431Z,5.00
2018-12-10T17:24:56.663Z,5.00
2018-12-10T17:27:24.110Z,4.90
2018-12-10T17:29:52.226Z,4.90
2018-12-10T17:32:19.671Z,4.90
2018-12-10T17:34:47.173Z,4.90
2018-12-10T17:37:14.655Z,4.90
2018-12-10T17:39:42.094Z,4.90
2018-12-10T17:42:09.543Z,4.80
2018-12-10T17:44:38.031Z,4.80
2018-12-10T17:47:08.695Z,4.80
2018-12-10T17:49:36.288Z,4.80
2018-12-10T17:52:04.711Z,4.80
2018-12-10T17:54:32.166Z,4.80
2018-12-10T17:56:59.617Z,4.80
2018-12-10T17:59:27.058Z,4.80
2018-12-10T18:01:54.685Z,4.80
2018-12-10T18:04:22.139Z,4.80
2018-12-10T18:06:49.605Z,4.80
2018-12-10T18:09:17.043Z,4.80
2018-12-10T18:11:44.583Z,4.80
2018-12-10T18:14:12.374Z,4.90
2018-12-10T18:16:39.816Z,4.80
2018-12-10T18:19:07.264Z,4.70
2018-12-10T18:21:35.023Z,4.70
2018-12-10T18:24:02.812Z,4.70
2018-12-10T18:26:30.394Z,4.70
2018-12-10T18:28:58.006Z,4.70
2018-12-10T18:31:25.442Z,4.60
2018-12-10T18:33:52.965Z,4.60
2018-12-10T18:36:21.058Z,4.60
2018-12-10T18:38:48.523Z,4.60
2018-12-10T18:41:15.990Z,4.60
2018-12-10T18:43:43.552Z,4.60
2018-12-10T18:46:11.743Z,4.70
2018-12-10T18:48:39.326Z,4.60
2018-12-10T18:51:07.019Z,4.60
2018-12-10T18:53:34.485Z,4.60
2018-12-10T18:56:01.939Z,4.60
2018-12-10T18:58:29.385Z,4.60
2018-12-10T19:00:56.939Z,4.60
2018-12-10T19:03:24.383Z,4.60
2018-12-10T19:05:51.828Z,4.60
2018-12-10T19:08:19.274Z,4.50
2018-12-10T19:10:46.729Z,4.60
2018-12-10T19:13:14.166Z,4.60
2018-12-10T19:15:41.755Z,4.60
2018-12-10T19:18:10.273Z,4.70
2018-12-10T19:20:37.793Z,4.60
2018-12-10T19:23:05.373Z,4.70
2018-12-10T19:25:32.855Z,4.60
2018-12-10T19:28:00.316Z,4.70
2018-12-10T19:30:27.933Z,4.60
2018-12-10T19:32:55.777Z,4.60
2018-12-10T19:35:23.308Z,4.60
2018-12-10T19:37:50.749Z,4.60
2018-12-10T19:40:18.214Z,4.60
2018-12-10T19:42:45.669Z,4.60
2018-12-10T19:45:13.217Z,4.60
2018-12-10T19:47:40.671Z,4.60
2018-12-10T19:50:08.200Z,4.50
2018-12-10T19:52:35.711Z,4.50
2018-12-10T19:55:03.602Z,4.60
2018-12-10T19:57:31.185Z,4.50
2018-12-10T19:59:58.646Z,4.50
2018-12-10T20:02:26.216Z,4.60
2018-12-10T20:04:54.777Z,4.60
2018-12-10T20:07:22.613Z,4.50
2018-12-10T20:09:51.531Z,4.40
2018-12-10T20:12:19.079Z,4.40
2018-12-10T20:14:46.792Z,4.40
2018-12-10T20:17:14.276Z,4.40
2018-12-10T20:19:41.740Z,4.40
2018-12-10T20:22:09.249Z,4.50
2018-12-10T20:24:36.898Z,4.40
2018-12-10T20:27:04.492Z,4.50
2018-12-10T20:29:32.384Z,4.50
2018-12-10T20:32:01.356Z,4.50
2018-12-10T20:34:29.586Z,4.50
2018-12-10T20:36:57.203Z,4.60
2018-12-10T20:39:24.998Z,4.60
2018-12-10T20:41:52.748Z,4.50
2018-12-10T20:44:20.232Z,4.50
2018-12-10T20:46:47.665Z,4.50
2018-12-10T20:49:15.119Z,4.60
2018-12-10T20:51:42.588Z,4.60
2018-12-10T20:54:10.220Z,4.70
2018-12-10T20:56:37.667Z,4.60
2018-12-10T20:59:05.167Z,4.60
2018-12-10T21:01:32.607Z,4.60
2018-12-10T21:04:00.205Z,4.60
2018-12-10T21:06:33.214Z,4.60
2018-12-10T21:09:00.764Z,4.60
2018-12-10T21:11:28.206Z,4.60
2018-12-10T21:13:55.668Z,4.50
2018-12-10T21:16:23.457Z,4.50
2018-12-10T21:18:51.530Z,4.60
2018-12-10T21:21:19.001Z,4.50
2018-12-10T21:23:46.442Z,4.50
2018-12-10T21:26:13.908Z,4.60
2018-12-10T21:28:41.358Z,4.60
2018-12-10T21:31:09.476Z,4.60
2018-12-10T21:33:36.925Z,4.60
2018-12-10T21:36:04.375Z,4.60
2018-12-10T21:38:32.762Z,4.60
2018-12-10T21:41:01.763Z,4.70
2018-12-10T21:43:29.217Z,4.70
2018-12-10T21:45:57.219Z,4.70
2018-12-10T21:48:24.707Z,4.70
2018-12-10T21:50:52.533Z,4.70
2018-12-10T21:53:20.129Z,4.70
2018-12-10T21:55:47.579Z,4.70
2018-12-10T21:58:15.123Z,4.70
2018-12-10T22:00:42.727Z,4.70
2018-12-10T22:03:10.224Z,4.70
2018-12-10T22:05:37.701Z,4.70
2018-12-10T22:08:05.162Z,4.80
2018-12-10T22:10:32.695Z,4.80
2018-12-10T22:13:00.147Z,4.80
2018-12-10T22:15:27.633Z,4.70
2018-12-10T22:17:55.122Z,4.60
2018-12-10T22:20:22.568Z,4.60
2018-12-10T22:22:50.022Z,4.60
2018-12-10T22:25:17.459Z,4.50
2018-12-10T22:27:44.915Z,4.60
2018-12-10T22:30:12.351Z,4.50
2018-12-10T22:32:39.805Z,4.50
2018-12-10T22:35:07.304Z,4.60
2018-12-10T22:37:34.815Z,4.60
2018-12-10T22:40:02.252Z,4.60
2018-12-10T22:42:29.698Z,4.60
2018-12-10T22:44:57.155Z,4.60
2018-12-10T22:47:24.620Z,4.60
2018-12-10T22:49:52.050Z,4.60
2018-12-10T22:52:19.499Z,4.60
2018-12-10T22:54:46.942Z,4.60
2018-12-10T22:57:14.392Z,4.70
2018-12-10T22:59:41.849Z,4.70
2018-12-10T23:02:09.282Z,4.70
2018-12-10T23:04:36.802Z,4.80
2018-12-10T23:07:09.326Z,4.90
2018-12-10T23:09:36.787Z,4.90
2018-12-10T23:12:04.746Z,4.90
2018-12-10T23:14:42.025Z,4.90
2018-12-10T23:17:09.478Z,4.90
2018-12-10T23:19:36.923Z,4.90
2018-12-10T23:22:04.377Z,4.90
2018-12-10T23:24:31.831Z,4.90
2018-12-10T23:26:59.281Z,5.00
2018-12-10T23:29:26.791Z,5.00
2018-12-10T23:31:54.223Z,5.00
2018-12-10T23:34:21.677Z,5.00
2018-12-10T23:36:49.179Z,5.00
2018-12-10T23:39:16.898Z,5.00
2018-12-10T23:41:44.390Z,5.00
2018-12-10T23:44:13.835Z,5.00
2018-12-10T23:46:41.290Z,4.90
2018-12-10T23:49:08.739Z,4.90
2018-12-10T23:51:36.216Z,4.90
2018-12-10T23:54:03.672Z,4.90
2018-12-10T23:56:31.107Z,4.90
2018-12-10T23:58:58.566Z,4.90
